sensor_id;sensor_type;location;lat;lon;timestamp;P1;durP1;ratioP1;P2;durP2;ratioP2
24677;SDS011;12800;53.094;8.778;2023-03-01T00:00:14;19.40;;;13.47;;
24677;SDS011;12800;53.094;8.778;2023-03-01T00:02:40;19.37;;;12.40;;
24677;SDS011;12800;53.094;8.778;2023-03-01T00:05:05;21.07;;;13.43;;
24677;SDS011;12800;53.094;8.778;2023-03-01T00:07:32;21.23;;;13.13;;
24677;SDS011;12800;53.094;8.778;2023-03-01T00:09:58;16.70;;;13.37;;
24677;SDS011;12800;53.094;8.778;2023-03-01T00:12:23;20.73;;;13.47;;
24677;SDS011;12800;53.094;8.778;2023-03-01T00:14:49;24.30;;;16.70;;
24677;SDS011;12800;53.094;8.778;2023-03-01T00:17:15;37.20;;;28.37;;
24677;SDS011;12800;53.094;8.778;2023-03-01T00:19:41;39.47;;;29.97;;
24677;SDS011;12800;53.094;8.778;2023-03-01T00:22:06;38.33;;;30.63;;
24677;SDS011;12800;53.094;8.778;2023-03-01T00:24:32;38.00;;;31.43;;
24677;SDS011;12800;53.094;8.778;2023-03-01T00:26:57;43.90;;;36.30;;
24677;SDS011;12800;53.094;8.778;2023-03-01T00:29:23;48.83;;;39.60;;
24677;SDS011;12800;53.094;8.778;2023-03-01T00:31:49;52.17;;;40.10;;
24677;SDS011;12800;53.094;8.778;2023-03-01T00:34:15;45.83;;;40.63;;
24677;SDS011;12800;53.094;8.778;2023-03-01T00:36:41;49.03;;;40.77;;
24677;SDS011;12800;53.094;8.778;2023-03-01T00:39:09;43.57;;;38.87;;
24677;SDS011;12800;53.094;8.778;2023-03-01T00:41:36;42.37;;;37.77;;
24677;SDS011;12800;53.094;8.778;2023-03-01T00:44:02;47.33;;;37.93;;
24677;SDS011;12800;53.094;8.778;2023-03-01T00:46:28;42.70;;;35.37;;
24677;SDS011;12800;53.094;8.778;2023-03-01T00:48:55;38.40;;;34.27;;
24677;SDS011;12800;53.094;8.778;2023-03-01T00:51:22;38.87;;;33.57;;
24677;SDS011;12800;53.094;8.778;2023-03-01T00:53:56;38.57;;;32.40;;
24677;SDS011;12800;53.094;8.778;2023-03-01T00:56:23;35.17;;;31.37;;
24677;SDS011;12800;53.094;8.778;2023-03-01T00:58:50;33.17;;;27.63;;
24677;SDS011;12800;53.094;8.778;2023-03-01T01:01:17;31.07;;;26.87;;
24677;SDS011;12800;53.094;8.778;2023-03-01T01:03:45;31.37;;;27.10;;
24677;SDS011;12800;53.094;8.778;2023-03-01T01:06:14;25.87;;;22.47;;
24677;SDS011;12800;53.094;8.778;2023-03-01T01:08:51;23.90;;;20.23;;
24677;SDS011;12800;53.094;8.778;2023-03-01T01:11:18;21.17;;;18.90;;
24677;SDS011;12800;53.094;8.778;2023-03-01T01:13:45;23.23;;;19.27;;
24677;SDS011;12800;53.094;8.778;2023-03-01T01:16:11;22.53;;;20.10;;
24677;SDS011;12800;53.094;8.778;2023-03-01T01:18:38;21.00;;;18.73;;
24677;SDS011;12800;53.094;8.778;2023-03-01T01:21:07;23.97;;;19.40;;
24677;SDS011;12800;53.094;8.778;2023-03-01T01:23:36;26.57;;;21.03;;
24677;SDS011;12800;53.094;8.778;2023-03-01T01:26:06;26.33;;;21.80;;
24677;SDS011;12800;53.094;8.778;2023-03-01T01:28:37;24.07;;;20.57;;
24677;SDS011;12800;53.094;8.778;2023-03-01T01:31:03;23.77;;;19.47;;
24677;SDS011;12800;53.094;8.778;2023-03-01T01:33:30;22.03;;;19.50;;
24677;SDS011;12800;53.094;8.778;2023-03-01T01:35:56;21.90;;;19.07;;
24677;SDS011;12800;53.094;8.778;2023-03-01T01:38:22;22.30;;;18.73;;
24677;SDS011;12800;53.094;8.778;2023-03-01T01:40:48;20.80;;;16.73;;
24677;SDS011;12800;53.094;8.778;2023-03-01T01:43:20;20.00;;;15.37;;
24677;SDS011;12800;53.094;8.778;2023-03-01T01:45:47;26.50;;;19.37;;
24677;SDS011;12800;53.094;8.778;2023-03-01T01:48:15;17.03;;;12.87;;
24677;SDS011;12800;53.094;8.778;2023-03-01T01:50:45;17.37;;;11.13;;
24677;SDS011;12800;53.094;8.778;2023-03-01T01:53:18;15.37;;;10.70;;
24677;SDS011;12800;53.094;8.778;2023-03-01T01:55:46;14.97;;;11.03;;
24677;SDS011;12800;53.094;8.778;2023-03-01T01:58:17;15.23;;;11.43;;
24677;SDS011;12800;53.094;8.778;2023-03-01T02:00:44;13.53;;;9.70;;
24677;SDS011;12800;53.094;8.778;2023-03-01T02:03:11;14.60;;;10.40;;
24677;SDS011;12800;53.094;8.778;2023-03-01T02:05:45;15.30;;;9.77;;
24677;SDS011;12800;53.094;8.778;2023-03-01T02:08:32;14.13;;;9.03;;
24677;SDS011;12800;53.094;8.778;2023-03-01T02:11:01;13.30;;;8.57;;
24677;SDS011;12800;53.094;8.778;2023-03-01T02:13:29;15.27;;;8.53;;
24677;SDS011;12800;53.094;8.778;2023-03-01T02:15:56;11.70;;;8.20;;
24677;SDS011;12800;53.094;8.778;2023-03-01T02:18:22;10.47;;;7.37;;
24677;SDS011;12800;53.094;8.778;2023-03-01T02:23:23;11.10;;;7.53;;
24677;SDS011;12800;53.094;8.778;2023-03-01T02:28:29;11.50;;;7.30;;
24677;SDS011;12800;53.094;8.778;2023-03-01T02:31:03;15.90;;;7.43;;
24677;SDS011;12800;53.094;8.778;2023-03-01T02:33:50;11.27;;;7.07;;
24677;SDS011;12800;53.094;8.778;2023-03-01T02:36:19;9.03;;;6.10;;
24677;SDS011;12800;53.094;8.778;2023-03-01T02:38:48;10.27;;;6.80;;
24677;SDS011;12800;53.094;8.778;2023-03-01T02:41:16;9.33;;;6.83;;
24677;SDS011;12800;53.094;8.778;2023-03-01T02:43:44;8.17;;;6.30;;
24677;SDS011;12800;53.094;8.778;2023-03-01T02:46:18;10.83;;;6.60;;
24677;SDS011;12800;53.094;8.778;2023-03-01T02:48:51;11.60;;;6.47;;
24677;SDS011;12800;53.094;8.778;2023-03-01T02:56:37;10.10;;;6.50;;
24677;SDS011;12800;53.094;8.778;2023-03-01T02:59:03;11.10;;;6.73;;
24677;SDS011;12800;53.094;8.778;2023-03-01T03:01:29;10.27;;;6.17;;
24677;SDS011;12800;53.094;8.778;2023-03-01T03:04:05;10.27;;;6.87;;
24677;SDS011;12800;53.094;8.778;2023-03-01T03:06:31;11.57;;;6.53;;
24677;SDS011;12800;53.094;8.778;2023-03-01T03:08:57;7.37;;;6.40;;
24677;SDS011;12800;53.094;8.778;2023-03-01T03:11:23;12.40;;;7.10;;
24677;SDS011;12800;53.094;8.778;2023-03-01T03:13:49;9.03;;;5.73;;
24677;SDS011;12800;53.094;8.778;2023-03-01T03:16:15;9.67;;;6.70;;
24677;SDS011;12800;53.094;8.778;2023-03-01T03:18:40;10.47;;;7.23;;
24677;SDS011;12800;53.094;8.778;2023-03-01T03:21:10;13.03;;;7.63;;
24677;SDS011;12800;53.094;8.778;2023-03-01T03:23:37;11.57;;;7.47;;
24677;SDS011;12800;53.094;8.778;2023-03-01T03:26:03;10.60;;;7.07;;
24677;SDS011;12800;53.094;8.778;2023-03-01T03:28:29;11.80;;;7.07;;
24677;SDS011;12800;53.094;8.778;2023-03-01T03:30:56;12.43;;;7.27;;
24677;SDS011;12800;53.094;8.778;2023-03-01T03:33:21;12.33;;;8.13;;
24677;SDS011;12800;53.094;8.778;2023-03-01T03:35:48;9.63;;;7.33;;
24677;SDS011;12800;53.094;8.778;2023-03-01T03:38:15;13.27;;;8.20;;
24677;SDS011;12800;53.094;8.778;2023-03-01T03:40:47;14.20;;;9.03;;
24677;SDS011;12800;53.094;8.778;2023-03-01T03:43:27;17.43;;;9.27;;
24677;SDS011;12800;53.094;8.778;2023-03-01T03:45:53;12.67;;;9.70;;
24677;SDS011;12800;53.094;8.778;2023-03-01T03:48:19;11.93;;;9.07;;
24677;SDS011;12800;53.094;8.778;2023-03-01T03:50:52;14.53;;;10.23;;
24677;SDS011;12800;53.094;8.778;2023-03-01T03:53:19;16.70;;;10.37;;
24677;SDS011;12800;53.094;8.778;2023-03-01T03:55:46;15.20;;;10.03;;
24677;SDS011;12800;53.094;8.778;2023-03-01T03:58:14;18.73;;;10.07;;
24677;SDS011;12800;53.094;8.778;2023-03-01T04:00:41;14.93;;;9.80;;
24677;SDS011;12800;53.094;8.778;2023-03-01T04:03:08;18.03;;;9.57;;
24677;SDS011;12800;53.094;8.778;2023-03-01T04:05:35;13.20;;;9.30;;
24677;SDS011;12800;53.094;8.778;2023-03-01T04:08:02;15.30;;;9.00;;
24677;SDS011;12800;53.094;8.778;2023-03-01T04:10:31;14.33;;;9.70;;
24677;SDS011;12800;53.094;8.778;2023-03-01T04:13:02;13.97;;;9.67;;
24677;SDS011;12800;53.094;8.778;2023-03-01T04:15:28;14.10;;;9.13;;
24677;SDS011;12800;53.094;8.778;2023-03-01T04:17:54;15.83;;;8.70;;
24677;SDS011;12800;53.094;8.778;2023-03-01T04:20:22;14.23;;;9.47;;
24677;SDS011;12800;53.094;8.778;2023-03-01T04:22:49;14.77;;;8.30;;
24677;SDS011;12800;53.094;8.778;2023-03-01T04:25:17;13.63;;;8.73;;
24677;SDS011;12800;53.094;8.778;2023-03-01T04:27:42;12.53;;;8.67;;
24677;SDS011;12800;53.094;8.778;2023-03-01T04:30:08;14.97;;;9.00;;
24677;SDS011;12800;53.094;8.778;2023-03-01T04:32:34;13.77;;;9.30;;
24677;SDS011;12800;53.094;8.778;2023-03-01T04:35:00;14.47;;;9.73;;
24677;SDS011;12800;53.094;8.778;2023-03-01T04:37:26;13.43;;;9.67;;
24677;SDS011;12800;53.094;8.778;2023-03-01T04:39:51;13.27;;;9.47;;
24677;SDS011;12800;53.094;8.778;2023-03-01T04:42:17;13.63;;;8.20;;
24677;SDS011;12800;53.094;8.778;2023-03-01T04:44:43;15.53;;;9.13;;
24677;SDS011;12800;53.094;8.778;2023-03-01T04:47:09;18.00;;;8.73;;
24677;SDS011;12800;53.094;8.778;2023-03-01T04:49:35;15.00;;;9.90;;
24677;SDS011;12800;53.094;8.778;2023-03-01T04:52:01;14.00;;;9.47;;
24677;SDS011;12800;53.094;8.778;2023-03-01T04:54:28;14.07;;;9.47;;
24677;SDS011;12800;53.094;8.778;2023-03-01T04:56:54;22.60;;;10.20;;
24677;SDS011;12800;53.094;8.778;2023-03-01T04:59:20;17.00;;;9.87;;
24677;SDS011;12800;53.094;8.778;2023-03-01T05:01:52;14.20;;;9.23;;
24677;SDS011;12800;53.094;8.778;2023-03-01T05:04:20;15.63;;;9.43;;
24677;SDS011;12800;53.094;8.778;2023-03-01T05:06:46;13.73;;;8.97;;
24677;SDS011;12800;53.094;8.778;2023-03-01T05:09:12;15.67;;;9.23;;
24677;SDS011;12800;53.094;8.778;2023-03-01T05:11:37;16.70;;;9.17;;
24677;SDS011;12800;53.094;8.778;2023-03-01T05:14:03;14.90;;;9.13;;
24677;SDS011;12800;53.094;8.778;2023-03-01T05:16:30;15.27;;;9.03;;
24677;SDS011;12800;53.094;8.778;2023-03-01T05:18:57;17.17;;;9.17;;
24677;SDS011;12800;53.094;8.778;2023-03-01T05:21:23;16.37;;;9.27;;
24677;SDS011;12800;53.094;8.778;2023-03-01T05:23:49;19.07;;;9.53;;
24677;SDS011;12800;53.094;8.778;2023-03-01T05:26:16;15.47;;;9.80;;
24677;SDS011;12800;53.094;8.778;2023-03-01T05:28:43;17.17;;;9.17;;
24677;SDS011;12800;53.094;8.778;2023-03-01T05:31:09;15.93;;;9.27;;
24677;SDS011;12800;53.094;8.778;2023-03-01T05:33:38;14.27;;;8.47;;
24677;SDS011;12800;53.094;8.778;2023-03-01T05:36:05;13.33;;;9.33;;
24677;SDS011;12800;53.094;8.778;2023-03-01T05:38:32;15.23;;;9.90;;
24677;SDS011;12800;53.094;8.778;2023-03-01T05:40:58;14.77;;;8.63;;
24677;SDS011;12800;53.094;8.778;2023-03-01T05:43:23;12.27;;;8.30;;
24677;SDS011;12800;53.094;8.778;2023-03-01T05:45:49;11.70;;;8.70;;
24677;SDS011;12800;53.094;8.778;2023-03-01T05:48:14;15.07;;;8.77;;
24677;SDS011;12800;53.094;8.778;2023-03-01T05:50:41;16.33;;;9.30;;
24677;SDS011;12800;53.094;8.778;2023-03-01T05:55:41;14.43;;;9.37;;
24677;SDS011;12800;53.094;8.778;2023-03-01T05:58:10;14.67;;;9.60;;
24677;SDS011;12800;53.094;8.778;2023-03-01T06:00:39;14.13;;;9.23;;
24677;SDS011;12800;53.094;8.778;2023-03-01T06:03:05;15.00;;;8.73;;
24677;SDS011;12800;53.094;8.778;2023-03-01T06:05:30;13.20;;;8.77;;
24677;SDS011;12800;53.094;8.778;2023-03-01T06:07:59;15.53;;;8.60;;
24677;SDS011;12800;53.094;8.778;2023-03-01T06:10:26;15.60;;;8.83;;
24677;SDS011;12800;53.094;8.778;2023-03-01T06:12:53;16.30;;;9.00;;
24677;SDS011;12800;53.094;8.778;2023-03-01T06:15:19;14.83;;;8.90;;
24677;SDS011;12800;53.094;8.778;2023-03-01T06:17:45;18.43;;;9.60;;
24677;SDS011;12800;53.094;8.778;2023-03-01T06:20:18;14.60;;;8.87;;
24677;SDS011;12800;53.094;8.778;2023-03-01T06:22:45;20.23;;;9.73;;
24677;SDS011;12800;53.094;8.778;2023-03-01T06:25:13;14.30;;;9.50;;
24677;SDS011;12800;53.094;8.778;2023-03-01T06:27:40;13.97;;;9.13;;
24677;SDS011;12800;53.094;8.778;2023-03-01T06:30:07;15.30;;;9.33;;
24677;SDS011;12800;53.094;8.778;2023-03-01T06:32:34;15.90;;;9.27;;
24677;SDS011;12800;53.094;8.778;2023-03-01T06:35:00;14.33;;;9.43;;
24677;SDS011;12800;53.094;8.778;2023-03-01T06:37:26;13.87;;;8.97;;
24677;SDS011;12800;53.094;8.778;2023-03-01T06:39:51;20.30;;;9.13;;
24677;SDS011;12800;53.094;8.778;2023-03-01T06:42:17;18.23;;;9.57;;
24677;SDS011;12800;53.094;8.778;2023-03-01T06:44:43;21.43;;;11.43;;
24677;SDS011;12800;53.094;8.778;2023-03-01T06:47:09;21.80;;;10.47;;
24677;SDS011;12800;53.094;8.778;2023-03-01T06:49:35;23.73;;;13.17;;
24677;SDS011;12800;53.094;8.778;2023-03-01T06:52:00;20.50;;;11.67;;
24677;SDS011;12800;53.094;8.778;2023-03-01T06:54:26;17.40;;;10.60;;
24677;SDS011;12800;53.094;8.778;2023-03-01T06:56:51;22.83;;;12.77;;
24677;SDS011;12800;53.094;8.778;2023-03-01T06:59:17;22.03;;;13.07;;
24677;SDS011;12800;53.094;8.778;2023-03-01T07:01:43;20.40;;;12.13;;
24677;SDS011;12800;53.094;8.778;2023-03-01T07:04:09;19.17;;;11.37;;
24677;SDS011;12800;53.094;8.778;2023-03-01T07:06:35;30.37;;;16.90;;
24677;SDS011;12800;53.094;8.778;2023-03-01T07:09:01;23.00;;;13.00;;
24677;SDS011;12800;53.094;8.778;2023-03-01T07:11:27;20.03;;;12.27;;
24677;SDS011;12800;53.094;8.778;2023-03-01T07:13:52;21.87;;;12.40;;
24677;SDS011;12800;53.094;8.778;2023-03-01T07:16:18;23.00;;;11.17;;
24677;SDS011;12800;53.094;8.778;2023-03-01T07:18:45;20.60;;;11.50;;
24677;SDS011;12800;53.094;8.778;2023-03-01T07:21:12;15.20;;;11.50;;
24677;SDS011;12800;53.094;8.778;2023-03-01T07:23:38;20.93;;;12.50;;
24677;SDS011;12800;53.094;8.778;2023-03-01T07:26:04;18.73;;;11.63;;
24677;SDS011;12800;53.094;8.778;2023-03-01T07:28:30;20.57;;;11.60;;
24677;SDS011;12800;53.094;8.778;2023-03-01T07:31:00;18.57;;;11.73;;
24677;SDS011;12800;53.094;8.778;2023-03-01T07:33:29;23.73;;;12.07;;
24677;SDS011;12800;53.094;8.778;2023-03-01T07:35:59;24.63;;;11.97;;
24677;SDS011;12800;53.094;8.778;2023-03-01T07:38:26;18.13;;;12.20;;
24677;SDS011;12800;53.094;8.778;2023-03-01T07:40:52;21.30;;;11.57;;
24677;SDS011;12800;53.094;8.778;2023-03-01T07:43:18;20.63;;;11.87;;
24677;SDS011;12800;53.094;8.778;2023-03-01T07:45:45;23.33;;;12.57;;
24677;SDS011;12800;53.094;8.778;2023-03-01T07:48:11;24.83;;;12.97;;
24677;SDS011;12800;53.094;8.778;2023-03-01T07:50:36;25.43;;;12.43;;
24677;SDS011;12800;53.094;8.778;2023-03-01T07:53:02;23.43;;;12.03;;
24677;SDS011;12800;53.094;8.778;2023-03-01T07:55:28;17.90;;;11.80;;
24677;SDS011;12800;53.094;8.778;2023-03-01T07:57:53;22.20;;;11.30;;
24677;SDS011;12800;53.094;8.778;2023-03-01T08:00:19;28.43;;;12.53;;
24677;SDS011;12800;53.094;8.778;2023-03-01T08:02:44;22.37;;;11.53;;
24677;SDS011;12800;53.094;8.778;2023-03-01T08:05:10;18.80;;;11.50;;
24677;SDS011;12800;53.094;8.778;2023-03-01T08:07:36;21.30;;;12.50;;
24677;SDS011;12800;53.094;8.778;2023-03-01T08:10:02;25.50;;;11.20;;
24677;SDS011;12800;53.094;8.778;2023-03-01T08:12:28;20.67;;;11.70;;
24677;SDS011;12800;53.094;8.778;2023-03-01T08:14:54;17.30;;;11.13;;
24677;SDS011;12800;53.094;8.778;2023-03-01T08:17:19;25.53;;;11.87;;
24677;SDS011;12800;53.094;8.778;2023-03-01T08:19:45;22.73;;;12.90;;
24677;SDS011;12800;53.094;8.778;2023-03-01T08:22:11;22.67;;;12.37;;
24677;SDS011;12800;53.094;8.778;2023-03-01T08:24:37;24.27;;;11.73;;
24677;SDS011;12800;53.094;8.778;2023-03-01T08:27:02;27.87;;;16.03;;
24677;SDS011;12800;53.094;8.778;2023-03-01T08:29:30;28.30;;;15.60;;
24677;SDS011;12800;53.094;8.778;2023-03-01T08:31:56;21.63;;;11.87;;
24677;SDS011;12800;53.094;8.778;2023-03-01T08:34:22;20.53;;;11.13;;
24677;SDS011;12800;53.094;8.778;2023-03-01T08:36:48;28.70;;;12.47;;
24677;SDS011;12800;53.094;8.778;2023-03-01T08:39:15;43.40;;;21.90;;
24677;SDS011;12800;53.094;8.778;2023-03-01T08:41:43;25.03;;;12.63;;
24677;SDS011;12800;53.094;8.778;2023-03-01T08:44:09;26.20;;;12.10;;
24677;SDS011;12800;53.094;8.778;2023-03-01T08:46:37;23.83;;;11.73;;
24677;SDS011;12800;53.094;8.778;2023-03-01T08:49:09;21.67;;;11.37;;
24677;SDS011;12800;53.094;8.778;2023-03-01T08:51:42;19.03;;;10.77;;
24677;SDS011;12800;53.094;8.778;2023-03-01T08:54:12;18.77;;;9.87;;
24677;SDS011;12800;53.094;8.778;2023-03-01T08:56:43;18.73;;;10.30;;
24677;SDS011;12800;53.094;8.778;2023-03-01T08:59:12;20.70;;;9.87;;
24677;SDS011;12800;53.094;8.778;2023-03-01T09:01:39;20.40;;;9.87;;
24677;SDS011;12800;53.094;8.778;2023-03-01T09:04:08;25.23;;;10.43;;
24677;SDS011;12800;53.094;8.778;2023-03-01T09:06:34;23.57;;;10.63;;
24677;SDS011;12800;53.094;8.778;2023-03-01T09:09:01;22.07;;;10.73;;
24677;SDS011;12800;53.094;8.778;2023-03-01T09:11:28;22.47;;;9.90;;
24677;SDS011;12800;53.094;8.778;2023-03-01T09:13:54;19.73;;;8.50;;
24677;SDS011;12800;53.094;8.778;2023-03-01T09:16:20;12.67;;;8.97;;
24677;SDS011;12800;53.094;8.778;2023-03-01T09:18:53;13.43;;;8.17;;
24677;SDS011;12800;53.094;8.778;2023-03-01T09:21:20;20.40;;;9.33;;
24677;SDS011;12800;53.094;8.778;2023-03-01T09:23:48;17.53;;;8.30;;
24677;SDS011;12800;53.094;8.778;2023-03-01T09:26:18;12.67;;;8.07;;
24677;SDS011;12800;53.094;8.778;2023-03-01T09:28:46;10.37;;;5.50;;
24677;SDS011;12800;53.094;8.778;2023-03-01T09:31:13;10.83;;;6.20;;
24677;SDS011;12800;53.094;8.778;2023-03-01T09:33:40;13.40;;;6.73;;
24677;SDS011;12800;53.094;8.778;2023-03-01T09:36:11;8.63;;;6.03;;
24677;SDS011;12800;53.094;8.778;2023-03-01T09:38:38;8.97;;;6.07;;
24677;SDS011;12800;53.094;8.778;2023-03-01T09:41:11;10.37;;;5.20;;
24677;SDS011;12800;53.094;8.778;2023-03-01T09:44:04;8.77;;;5.30;;
24677;SDS011;12800;53.094;8.778;2023-03-01T09:46:32;7.73;;;4.53;;
24677;SDS011;12800;53.094;8.778;2023-03-01T09:49:09;7.80;;;4.43;;
24677;SDS011;12800;53.094;8.778;2023-03-01T09:51:41;8.87;;;4.13;;
24677;SDS011;12800;53.094;8.778;2023-03-01T09:54:08;8.13;;;4.23;;
24677;SDS011;12800;53.094;8.778;2023-03-01T10:05:27;7.70;;;3.17;;
24677;SDS011;12800;53.094;8.778;2023-03-01T10:10:37;4.70;;;2.90;;
24677;SDS011;12800;53.094;8.778;2023-03-01T10:13:10;3.83;;;2.27;;
24677;SDS011;12800;53.094;8.778;2023-03-01T10:15:56;3.50;;;2.13;;
24677;SDS011;12800;53.094;8.778;2023-03-01T10:18:27;4.23;;;2.03;;
24677;SDS011;12800;53.094;8.778;2023-03-01T10:20:59;8.97;;;4.53;;
24677;SDS011;12800;53.094;8.778;2023-03-01T10:23:27;4.37;;;2.80;;
24677;SDS011;12800;53.094;8.778;2023-03-01T10:31:07;4.27;;;3.13;;
24677;SDS011;12800;53.094;8.778;2023-03-01T10:33:38;5.90;;;3.20;;
24677;SDS011;12800;53.094;8.778;2023-03-01T10:36:05;7.77;;;3.60;;
24677;SDS011;12800;53.094;8.778;2023-03-01T10:38:33;8.13;;;3.60;;
24677;SDS011;12800;53.094;8.778;2023-03-01T10:41:20;4.80;;;3.20;;
24677;SDS011;12800;53.094;8.778;2023-03-01T10:49:05;106.30;;;23.57;;
24677;SDS011;12800;53.094;8.778;2023-03-01T10:51:32;25.37;;;7.47;;
24677;SDS011;12800;53.094;8.778;2023-03-01T10:53:58;12.50;;;6.73;;
24677;SDS011;12800;53.094;8.778;2023-03-01T10:56:24;8.17;;;6.10;;
24677;SDS011;12800;53.094;8.778;2023-03-01T10:59:03;12.47;;;5.47;;
24677;SDS011;12800;53.094;8.778;2023-03-01T11:01:31;10.37;;;6.77;;
24677;SDS011;12800;53.094;8.778;2023-03-01T11:06:30;11.87;;;7.33;;
24677;SDS011;12800;53.094;8.778;2023-03-01T11:08:56;12.00;;;6.90;;
24677;SDS011;12800;53.094;8.778;2023-03-01T11:11:37;14.60;;;8.03;;
24677;SDS011;12800;53.094;8.778;2023-03-01T11:14:07;12.47;;;7.97;;
24677;SDS011;12800;53.094;8.778;2023-03-01T11:16:44;12.03;;;7.77;;
24677;SDS011;12800;53.094;8.778;2023-03-01T11:21:42;10.80;;;8.07;;
24677;SDS011;12800;53.094;8.778;2023-03-01T11:24:23;12.87;;;8.97;;
24677;SDS011;12800;53.094;8.778;2023-03-01T11:27:04;8.67;;;7.50;;
24677;SDS011;12800;53.094;8.778;2023-03-01T11:32:32;13.37;;;9.70;;
24677;SDS011;12800;53.094;8.778;2023-03-01T11:37:49;11.50;;;7.70;;
24677;SDS011;12800;53.094;8.778;2023-03-01T11:40:32;10.00;;;8.13;;
24677;SDS011;12800;53.094;8.778;2023-03-01T11:43:12;11.43;;;8.03;;
24677;SDS011;12800;53.094;8.778;2023-03-01T11:49:05;10.50;;;7.93;;
24677;SDS011;12800;53.094;8.778;2023-03-01T11:54:27;11.03;;;8.20;;
24677;SDS011;12800;53.094;8.778;2023-03-01T11:57:09;12.83;;;8.33;;
24677;SDS011;12800;53.094;8.778;2023-03-01T12:02:13;11.97;;;9.23;;
24677;SDS011;12800;53.094;8.778;2023-03-01T12:18:44;10.77;;;8.10;;
24677;SDS011;12800;53.094;8.778;2023-03-01T12:21:46;11.70;;;8.97;;
24677;SDS011;12800;53.094;8.778;2023-03-01T12:24:43;8.70;;;7.50;;
24677;SDS011;12800;53.094;8.778;2023-03-01T12:33:15;8.77;;;7.07;;
24677;SDS011;12800;53.094;8.778;2023-03-01T12:38:25;10.97;;;8.57;;
24677;SDS011;12800;53.094;8.778;2023-03-01T12:41:11;11.63;;;7.33;;
24677;SDS011;12800;53.094;8.778;2023-03-01T12:47:07;9.20;;;7.40;;
24677;SDS011;12800;53.094;8.778;2023-03-01T12:49:54;9.47;;;7.07;;
24677;SDS011;12800;53.094;8.778;2023-03-01T12:52:35;10.57;;;7.80;;
24677;SDS011;12800;53.094;8.778;2023-03-01T12:55:07;9.60;;;7.67;;
24677;SDS011;12800;53.094;8.778;2023-03-01T12:57:47;10.87;;;8.20;;
24677;SDS011;12800;53.094;8.778;2023-03-01T13:00:28;12.20;;;8.07;;
24677;SDS011;12800;53.094;8.778;2023-03-01T13:05:36;9.77;;;8.03;;
24677;SDS011;12800;53.094;8.778;2023-03-01T13:08:19;9.27;;;7.47;;
24677;SDS011;12800;53.094;8.778;2023-03-01T13:10:57;8.63;;;7.13;;
24677;SDS011;12800;53.094;8.778;2023-03-01T13:13:26;10.93;;;7.53;;
24677;SDS011;12800;53.094;8.778;2023-03-01T13:15:54;8.63;;;6.27;;
24677;SDS011;12800;53.094;8.778;2023-03-01T13:20:53;11.33;;;8.13;;
24677;SDS011;12800;53.094;8.778;2023-03-01T13:30:59;14.07;;;8.80;;
24677;SDS011;12800;53.094;8.778;2023-03-01T13:35:52;9.83;;;7.70;;
24677;SDS011;12800;53.094;8.778;2023-03-01T13:46:43;11.10;;;8.77;;
24677;SDS011;12800;53.094;8.778;2023-03-01T13:49:11;10.17;;;8.17;;
24677;SDS011;12800;53.094;8.778;2023-03-01T13:51:41;11.00;;;7.93;;
24677;SDS011;12800;53.094;8.778;2023-03-01T13:54:11;12.60;;;8.60;;
24677;SDS011;12800;53.094;8.778;2023-03-01T13:56:39;13.43;;;8.57;;
24677;SDS011;12800;53.094;8.778;2023-03-01T13:59:18;12.33;;;8.97;;
24677;SDS011;12800;53.094;8.778;2023-03-01T14:01:51;9.93;;;8.13;;
24677;SDS011;12800;53.094;8.778;2023-03-01T14:04:26;14.57;;;9.50;;
24677;SDS011;12800;53.094;8.778;2023-03-01T14:07:13;11.43;;;8.57;;
24677;SDS011;12800;53.094;8.778;2023-03-01T14:09:44;10.73;;;8.43;;
24677;SDS011;12800;53.094;8.778;2023-03-01T14:20:31;15.07;;;10.37;;
24677;SDS011;12800;53.094;8.778;2023-03-01T14:23:09;12.07;;;10.13;;
24677;SDS011;12800;53.094;8.778;2023-03-01T14:25:37;12.30;;;9.80;;
24677;SDS011;12800;53.094;8.778;2023-03-01T14:30:49;13.50;;;9.17;;
24677;SDS011;12800;53.094;8.778;2023-03-01T14:35:58;14.20;;;9.10;;
24677;SDS011;12800;53.094;8.778;2023-03-01T14:38:39;11.77;;;8.87;;
24677;SDS011;12800;53.094;8.778;2023-03-01T14:41:11;10.53;;;8.63;;
24677;SDS011;12800;53.094;8.778;2023-03-01T14:43:38;10.90;;;8.77;;
24677;SDS011;12800;53.094;8.778;2023-03-01T14:46:06;9.40;;;8.17;;
24677;SDS011;12800;53.094;8.778;2023-03-01T14:48:41;9.33;;;8.33;;
24677;SDS011;12800;53.094;8.778;2023-03-01T14:51:07;10.63;;;9.37;;
24677;SDS011;12800;53.094;8.778;2023-03-01T14:53:32;12.37;;;8.97;;
24677;SDS011;12800;53.094;8.778;2023-03-01T14:55:59;11.27;;;9.90;;
24677;SDS011;12800;53.094;8.778;2023-03-01T14:58:31;12.40;;;9.77;;
24677;SDS011;12800;53.094;8.778;2023-03-01T15:00:59;12.73;;;9.00;;
24677;SDS011;12800;53.094;8.778;2023-03-01T15:03:33;12.03;;;9.10;;
24677;SDS011;12800;53.094;8.778;2023-03-01T15:06:07;10.67;;;8.23;;
24677;SDS011;12800;53.094;8.778;2023-03-01T15:08:33;11.17;;;9.17;;
24677;SDS011;12800;53.094;8.778;2023-03-01T15:13:47;12.67;;;9.43;;
24677;SDS011;12800;53.094;8.778;2023-03-01T15:16:13;10.93;;;9.47;;
24677;SDS011;12800;53.094;8.778;2023-03-01T15:18:45;12.73;;;10.00;;
24677;SDS011;12800;53.094;8.778;2023-03-01T15:23:52;11.93;;;10.03;;
24677;SDS011;12800;53.094;8.778;2023-03-01T15:26:28;12.87;;;9.87;;
24677;SDS011;12800;53.094;8.778;2023-03-01T15:28:55;11.63;;;9.60;;
24677;SDS011;12800;53.094;8.778;2023-03-01T15:31:24;14.00;;;10.17;;
24677;SDS011;12800;53.094;8.778;2023-03-01T15:37:32;15.83;;;10.20;;
24677;SDS011;12800;53.094;8.778;2023-03-01T15:40:02;17.37;;;12.07;;
24677;SDS011;12800;53.094;8.778;2023-03-01T15:42:42;17.37;;;12.23;;
24677;SDS011;12800;53.094;8.778;2023-03-01T15:45:09;15.47;;;10.57;;
24677;SDS011;12800;53.094;8.778;2023-03-01T15:47:49;15.27;;;10.40;;
24677;SDS011;12800;53.094;8.778;2023-03-01T15:50:32;14.20;;;10.77;;
24677;SDS011;12800;53.094;8.778;2023-03-01T15:53:01;13.70;;;10.47;;
24677;SDS011;12800;53.094;8.778;2023-03-01T15:55:35;14.60;;;10.97;;
24677;SDS011;12800;53.094;8.778;2023-03-01T15:58:15;16.23;;;11.13;;
24677;SDS011;12800;53.094;8.778;2023-03-01T16:00:49;15.63;;;11.37;;
24677;SDS011;12800;53.094;8.778;2023-03-01T16:03:20;16.07;;;10.93;;
24677;SDS011;12800;53.094;8.778;2023-03-01T16:05:47;16.73;;;9.80;;
24677;SDS011;12800;53.094;8.778;2023-03-01T16:08:14;17.90;;;11.90;;
24677;SDS011;12800;53.094;8.778;2023-03-01T16:10:41;18.63;;;10.43;;
24677;SDS011;12800;53.094;8.778;2023-03-01T16:13:10;15.33;;;10.70;;
24677;SDS011;12800;53.094;8.778;2023-03-01T16:15:39;13.63;;;10.63;;
24677;SDS011;12800;53.094;8.778;2023-03-01T16:18:05;19.43;;;12.93;;
24677;SDS011;12800;53.094;8.778;2023-03-01T16:20:33;15.50;;;11.50;;
24677;SDS011;12800;53.094;8.778;2023-03-01T16:22:59;15.67;;;10.60;;
24677;SDS011;12800;53.094;8.778;2023-03-01T16:25:26;16.00;;;11.77;;
24677;SDS011;12800;53.094;8.778;2023-03-01T16:27:52;16.80;;;11.77;;
24677;SDS011;12800;53.094;8.778;2023-03-01T16:30:19;18.17;;;12.70;;
24677;SDS011;12800;53.094;8.778;2023-03-01T16:32:46;18.60;;;12.20;;
24677;SDS011;12800;53.094;8.778;2023-03-01T16:35:13;19.87;;;13.23;;
24677;SDS011;12800;53.094;8.778;2023-03-01T16:37:40;16.63;;;12.10;;
24677;SDS011;12800;53.094;8.778;2023-03-01T16:40:07;20.97;;;12.67;;
24677;SDS011;12800;53.094;8.778;2023-03-01T16:42:49;22.17;;;13.57;;
24677;SDS011;12800;53.094;8.778;2023-03-01T16:45:15;22.47;;;12.67;;
24677;SDS011;12800;53.094;8.778;2023-03-01T16:47:41;17.87;;;12.33;;